sensor_id;sensor_type;location;lat;lon;timestamp;P1;durP1;ratioP1;P2;durP2;ratioP2
75626;SDS011;67372;49.404;11.034;2024-03-02T00:01:04;32.92;;;14.25;;
75626;SDS011;67372;49.404;11.034;2024-03-02T00:03:31;31.48;;;13.10;;
75626;SDS011;67372;49.404;11.034;2024-03-02T00:05:57;36.13;;;14.93;;
75626;SDS011;67372;49.404;11.034;2024-03-02T00:08:24;36.40;;;13.95;;
75626;SDS011;67372;49.404;11.034;2024-03-02T00:10:51;33.65;;;13.70;;
75626;SDS011;67372;49.404;11.034;2024-03-02T00:13:23;32.78;;;14.10;;
75626;SDS011;67372;49.404;11.034;2024-03-02T00:15:53;36.80;;;14.88;;
75626;SDS011;67372;49.404;11.034;2024-03-02T00:18:24;34.17;;;13.75;;
75626;SDS011;67372;49.404;11.034;2024-03-02T00:20:52;30.85;;;13.73;;
75626;SDS011;67372;49.404;11.034;2024-03-02T00:23:19;33.47;;;13.50;;
75626;SDS011;67372;49.404;11.034;2024-03-02T00:25:47;35.80;;;14.10;;
75626;SDS011;67372;49.404;11.034;2024-03-02T00:28:19;33.63;;;14.02;;
75626;SDS011;67372;49.404;11.034;2024-03-02T00:31:01;32.97;;;13.88;;
75626;SDS011;67372;49.404;11.034;2024-03-02T00:33:36;35.42;;;13.82;;
75626;SDS011;67372;49.404;11.034;2024-03-02T00:36:04;33.28;;;13.63;;
75626;SDS011;67372;49.404;11.034;2024-03-02T00:38:31;30.55;;;13.13;;
75626;SDS011;67372;49.404;11.034;2024-03-02T00:40:58;32.03;;;14.07;;
75626;SDS011;67372;49.404;11.034;2024-03-02T00:46:15;32.28;;;13.98;;
75626;SDS011;67372;49.404;11.034;2024-03-02T00:48:53;36.08;;;13.90;;
75626;SDS011;67372;49.404;11.034;2024-03-02T00:51:21;31.73;;;13.85;;
75626;SDS011;67372;49.404;11.034;2024-03-02T00:53:50;32.90;;;14.18;;
75626;SDS011;67372;49.404;11.034;2024-03-02T00:56:17;32.45;;;13.25;;
75626;SDS011;67372;49.404;11.034;2024-03-02T00:58:44;32.28;;;13.73;;
75626;SDS011;67372;49.404;11.034;2024-03-02T01:01:10;33.40;;;14.23;;
75626;SDS011;67372;49.404;11.034;2024-03-02T01:03:37;33.95;;;13.85;;
75626;SDS011;67372;49.404;11.034;2024-03-02T01:06:04;30.08;;;14.45;;
75626;SDS011;67372;49.404;11.034;2024-03-02T01:08:30;32.30;;;14.85;;
75626;SDS011;67372;49.404;11.034;2024-03-02T01:10:57;32.63;;;13.77;;
75626;SDS011;67372;49.404;11.034;2024-03-02T01:13:23;34.22;;;14.15;;
75626;SDS011;67372;49.404;11.034;2024-03-02T01:15:50;34.83;;;14.43;;
75626;SDS011;67372;49.404;11.034;2024-03-02T01:18:16;33.03;;;13.98;;
75626;SDS011;67372;49.404;11.034;2024-03-02T01:20:43;37.17;;;14.10;;
75626;SDS011;67372;49.404;11.034;2024-03-02T01:23:09;31.67;;;14.07;;
75626;SDS011;67372;49.404;11.034;2024-03-02T01:25:36;35.85;;;14.73;;
75626;SDS011;67372;49.404;11.034;2024-03-02T01:28:02;34.35;;;14.57;;
75626;SDS011;67372;49.404;11.034;2024-03-02T01:30:30;33.65;;;14.88;;
75626;SDS011;67372;49.404;11.034;2024-03-02T01:32:56;33.38;;;14.32;;
75626;SDS011;67372;49.404;11.034;2024-03-02T01:35:22;33.80;;;13.73;;
75626;SDS011;67372;49.404;11.034;2024-03-02T01:37:49;37.33;;;14.70;;
75626;SDS011;67372;49.404;11.034;2024-03-02T01:40:15;30.73;;;13.95;;
75626;SDS011;67372;49.404;11.034;2024-03-02T01:42:42;32.50;;;13.93;;
75626;SDS011;67372;49.404;11.034;2024-03-02T01:45:09;33.20;;;14.48;;
75626;SDS011;67372;49.404;11.034;2024-03-02T01:47:35;34.75;;;14.40;;
75626;SDS011;67372;49.404;11.034;2024-03-02T01:50:02;37.35;;;13.85;;
75626;SDS011;67372;49.404;11.034;2024-03-02T01:52:29;33.40;;;13.70;;
75626;SDS011;67372;49.404;11.034;2024-03-02T01:54:55;36.47;;;13.45;;
75626;SDS011;67372;49.404;11.034;2024-03-02T01:57:22;34.95;;;14.15;;
75626;SDS011;67372;49.404;11.034;2024-03-02T01:59:48;31.77;;;13.55;;
75626;SDS011;67372;49.404;11.034;2024-03-02T02:02:15;32.58;;;14.13;;
75626;SDS011;67372;49.404;11.034;2024-03-02T02:04:41;33.47;;;14.05;;
75626;SDS011;67372;49.404;11.034;2024-03-02T02:07:08;33.88;;;14.48;;
75626;SDS011;67372;49.404;11.034;2024-03-02T02:09:35;34.38;;;14.38;;
75626;SDS011;67372;49.404;11.034;2024-03-02T02:12:02;33.47;;;13.98;;
75626;SDS011;67372;49.404;11.034;2024-03-02T02:14:28;30.63;;;13.13;;
75626;SDS011;67372;49.404;11.034;2024-03-02T02:16:54;35.83;;;13.48;;
75626;SDS011;67372;49.404;11.034;2024-03-02T02:19:21;32.95;;;13.88;;
75626;SDS011;67372;49.404;11.034;2024-03-02T02:21:47;35.20;;;13.80;;
75626;SDS011;67372;49.404;11.034;2024-03-02T02:24:14;38.70;;;14.27;;
75626;SDS011;67372;49.404;11.034;2024-03-02T02:26:40;34.25;;;13.48;;
75626;SDS011;67372;49.404;11.034;2024-03-02T02:29:06;35.85;;;13.98;;
75626;SDS011;67372;49.404;11.034;2024-03-02T02:31:36;35.42;;;15.20;;
75626;SDS011;67372;49.404;11.034;2024-03-02T02:34:03;32.22;;;12.55;;
75626;SDS011;67372;49.404;11.034;2024-03-02T02:36:30;38.75;;;14.90;;
75626;SDS011;67372;49.404;11.034;2024-03-02T02:38:58;32.35;;;13.45;;
75626;SDS011;67372;49.404;11.034;2024-03-02T02:41:27;34.65;;;14.20;;
75626;SDS011;67372;49.404;11.034;2024-03-02T02:43:54;35.33;;;13.88;;
75626;SDS011;67372;49.404;11.034;2024-03-02T02:46:20;28.27;;;13.25;;
75626;SDS011;67372;49.404;11.034;2024-03-02T02:48:47;34.72;;;14.85;;
75626;SDS011;67372;49.404;11.034;2024-03-02T02:51:13;33.42;;;12.57;;
75626;SDS011;67372;49.404;11.034;2024-03-02T02:53:40;31.13;;;13.77;;
75626;SDS011;67372;49.404;11.034;2024-03-02T02:56:06;33.97;;;15.25;;
75626;SDS011;67372;49.404;11.034;2024-03-02T02:58:33;32.80;;;13.55;;
75626;SDS011;67372;49.404;11.034;2024-03-02T03:01:00;38.13;;;15.20;;
75626;SDS011;67372;49.404;11.034;2024-03-02T03:03:26;36.20;;;13.82;;
75626;SDS011;67372;49.404;11.034;2024-03-02T03:05:52;27.77;;;12.70;;
75626;SDS011;67372;49.404;11.034;2024-03-02T03:08:19;31.02;;;12.15;;
75626;SDS011;67372;49.404;11.034;2024-03-02T03:10:45;32.30;;;13.25;;
75626;SDS011;67372;49.404;11.034;2024-03-02T03:13:12;32.38;;;13.75;;
75626;SDS011;67372;49.404;11.034;2024-03-02T03:15:38;35.58;;;14.45;;
75626;SDS011;67372;49.404;11.034;2024-03-02T03:18:04;32.85;;;13.68;;
75626;SDS011;67372;49.404;11.034;2024-03-02T03:20:31;32.35;;;13.20;;
75626;SDS011;67372;49.404;11.034;2024-03-02T03:22:57;29.73;;;12.77;;
75626;SDS011;67372;49.404;11.034;2024-03-02T03:25:24;31.08;;;13.90;;
75626;SDS011;67372;49.404;11.034;2024-03-02T03:27:50;31.27;;;13.63;;
75626;SDS011;67372;49.404;11.034;2024-03-02T03:30:17;28.92;;;13.40;;
75626;SDS011;67372;49.404;11.034;2024-03-02T03:32:43;32.28;;;13.45;;
75626;SDS011;67372;49.404;11.034;2024-03-02T03:35:09;30.63;;;12.75;;
75626;SDS011;67372;49.404;11.034;2024-03-02T03:37:36;32.08;;;12.68;;
75626;SDS011;67372;49.404;11.034;2024-03-02T03:40:02;30.67;;;13.48;;
75626;SDS011;67372;49.404;11.034;2024-03-02T03:42:30;27.92;;;12.45;;
75626;SDS011;67372;49.404;11.034;2024-03-02T03:44:56;31.13;;;12.32;;
75626;SDS011;67372;49.404;11.034;2024-03-02T03:47:22;28.50;;;12.63;;
75626;SDS011;67372;49.404;11.034;2024-03-02T03:49:49;33.58;;;12.98;;
75626;SDS011;67372;49.404;11.034;2024-03-02T03:52:15;24.30;;;11.38;;
75626;SDS011;67372;49.404;11.034;2024-03-02T03:54:41;28.90;;;11.65;;
75626;SDS011;67372;49.404;11.034;2024-03-02T03:57:08;29.83;;;12.90;;
75626;SDS011;67372;49.404;11.034;2024-03-02T03:59:34;30.20;;;13.25;;
75626;SDS011;67372;49.404;11.034;2024-03-02T04:02:00;31.67;;;12.25;;
75626;SDS011;67372;49.404;11.034;2024-03-02T04:04:27;28.83;;;12.55;;
75626;SDS011;67372;49.404;11.034;2024-03-02T04:06:53;28.90;;;11.68;;
75626;SDS011;67372;49.404;11.034;2024-03-02T04:09:19;27.08;;;11.35;;
75626;SDS011;67372;49.404;11.034;2024-03-02T04:11:46;25.25;;;11.48;;
75626;SDS011;67372;49.404;11.034;2024-03-02T04:14:12;27.42;;;11.75;;
75626;SDS011;67372;49.404;11.034;2024-03-02T04:16:39;25.63;;;10.25;;
75626;SDS011;67372;49.404;11.034;2024-03-02T04:19:05;28.15;;;12.60;;
75626;SDS011;67372;49.404;11.034;2024-03-02T04:21:32;25.27;;;11.13;;
75626;SDS011;67372;49.404;11.034;2024-03-02T04:23:58;24.52;;;11.10;;
75626;SDS011;67372;49.404;11.034;2024-03-02T04:26:25;24.13;;;10.07;;
75626;SDS011;67372;49.404;11.034;2024-03-02T04:28:52;22.52;;;10.15;;
75626;SDS011;67372;49.404;11.034;2024-03-02T04:31:19;18.88;;;9.55;;
75626;SDS011;67372;49.404;11.034;2024-03-02T04:33:46;25.80;;;9.63;;
75626;SDS011;67372;49.404;11.034;2024-03-02T04:36:12;21.85;;;9.82;;
75626;SDS011;67372;49.404;11.034;2024-03-02T04:38:39;18.15;;;8.60;;
75626;SDS011;67372;49.404;11.034;2024-03-02T04:41:06;21.10;;;8.93;;
75626;SDS011;67372;49.404;11.034;2024-03-02T04:46:00;20.17;;;8.02;;
75626;SDS011;67372;49.404;11.034;2024-03-02T04:48:27;22.52;;;8.98;;
75626;SDS011;67372;49.404;11.034;2024-03-02T04:50:53;19.63;;;8.38;;
75626;SDS011;67372;49.404;11.034;2024-03-02T04:53:20;20.05;;;8.20;;
75626;SDS011;67372;49.404;11.034;2024-03-02T04:55:46;23.30;;;9.27;;
75626;SDS011;67372;49.404;11.034;2024-03-02T04:58:12;19.25;;;9.05;;
75626;SDS011;67372;49.404;11.034;2024-03-02T05:00:39;20.98;;;8.60;;
75626;SDS011;67372;49.404;11.034;2024-03-02T05:03:05;19.90;;;8.38;;
75626;SDS011;67372;49.404;11.034;2024-03-02T05:05:32;22.20;;;8.70;;
75626;SDS011;67372;49.404;11.034;2024-03-02T05:07:58;20.10;;;8.15;;
75626;SDS011;67372;49.404;11.034;2024-03-02T05:10:24;23.77;;;8.48;;
75626;SDS011;67372;49.404;11.034;2024-03-02T05:12:51;18.38;;;8.27;;
75626;SDS011;67372;49.404;11.034;2024-03-02T05:15:17;22.23;;;8.77;;
75626;SDS011;67372;49.404;11.034;2024-03-02T05:17:44;19.65;;;8.23;;
75626;SDS011;67372;49.404;11.034;2024-03-02T05:20:10;23.02;;;8.10;;
75626;SDS011;67372;49.404;11.034;2024-03-02T05:22:37;22.50;;;8.48;;
75626;SDS011;67372;49.404;11.034;2024-03-02T05:25:04;20.35;;;8.65;;
75626;SDS011;67372;49.404;11.034;2024-03-02T05:27:31;23.27;;;8.52;;
75626;SDS011;67372;49.404;11.034;2024-03-02T05:29:59;20.60;;;8.20;;
75626;SDS011;67372;49.404;11.034;2024-03-02T05:32:25;20.45;;;8.70;;
75626;SDS011;67372;49.404;11.034;2024-03-02T05:34:52;21.85;;;8.18;;
75626;SDS011;67372;49.404;11.034;2024-03-02T05:37:18;20.95;;;9.13;;
75626;SDS011;67372;49.404;11.034;2024-03-02T05:39:45;23.17;;;8.48;;
75626;SDS011;67372;49.404;11.034;2024-03-02T05:42:11;23.88;;;8.85;;
75626;SDS011;67372;49.404;11.034;2024-03-02T05:44:38;20.27;;;8.63;;
75626;SDS011;67372;49.404;11.034;2024-03-02T05:47:04;22.83;;;8.75;;
75626;SDS011;67372;49.404;11.034;2024-03-02T05:49:31;21.88;;;9.55;;
75626;SDS011;67372;49.404;11.034;2024-03-02T05:51:57;23.60;;;8.43;;
75626;SDS011;67372;49.404;11.034;2024-03-02T05:54:24;24.35;;;10.15;;
75626;SDS011;67372;49.404;11.034;2024-03-02T05:56:50;23.63;;;9.45;;
75626;SDS011;67372;49.404;11.034;2024-03-02T05:59:17;22.33;;;9.23;;
75626;SDS011;67372;49.404;11.034;2024-03-02T06:01:43;24.77;;;9.27;;
75626;SDS011;67372;49.404;11.034;2024-03-02T06:04:11;22.30;;;8.18;;
75626;SDS011;67372;49.404;11.034;2024-03-02T06:06:38;22.05;;;8.85;;
75626;SDS011;67372;49.404;11.034;2024-03-02T06:09:05;25.48;;;9.52;;
75626;SDS011;67372;49.404;11.034;2024-03-02T06:14:03;21.98;;;8.18;;
75626;SDS011;67372;49.404;11.034;2024-03-02T06:16:30;24.17;;;8.30;;
75626;SDS011;67372;49.404;11.034;2024-03-02T06:18:57;20.25;;;8.50;;
75626;SDS011;67372;49.404;11.034;2024-03-02T06:21:26;19.02;;;8.18;;
75626;SDS011;67372;49.404;11.034;2024-03-02T06:23:54;23.02;;;9.52;;
75626;SDS011;67372;49.404;11.034;2024-03-02T06:26:20;23.35;;;8.32;;
75626;SDS011;67372;49.404;11.034;2024-03-02T06:28:50;26.85;;;9.23;;
75626;SDS011;67372;49.404;11.034;2024-03-02T06:31:17;22.80;;;8.30;;
75626;SDS011;67372;49.404;11.034;2024-03-02T06:33:43;20.45;;;8.48;;
75626;SDS011;67372;49.404;11.034;2024-03-02T06:36:10;20.70;;;8.73;;
75626;SDS011;67372;49.404;11.034;2024-03-02T06:38:36;21.90;;;9.02;;
75626;SDS011;67372;49.404;11.034;2024-03-02T06:41:06;23.83;;;8.70;;
75626;SDS011;67372;49.404;11.034;2024-03-02T06:43:32;18.85;;;8.13;;
75626;SDS011;67372;49.404;11.034;2024-03-02T06:45:59;20.35;;;8.75;;
75626;SDS011;67372;49.404;11.034;2024-03-02T06:48:25;22.83;;;9.27;;
75626;SDS011;67372;49.404;11.034;2024-03-02T06:50:52;22.50;;;9.57;;
75626;SDS011;67372;49.404;11.034;2024-03-02T06:53:18;20.55;;;9.20;;
75626;SDS011;67372;49.404;11.034;2024-03-02T06:55:44;22.73;;;10.05;;
75626;SDS011;67372;49.404;11.034;2024-03-02T06:58:11;30.63;;;11.20;;
75626;SDS011;67372;49.404;11.034;2024-03-02T07:00:38;28.20;;;10.65;;
75626;SDS011;67372;49.404;11.034;2024-03-02T07:03:05;24.83;;;10.98;;
75626;SDS011;67372;49.404;11.034;2024-03-02T07:05:31;24.75;;;10.20;;
75626;SDS011;67372;49.404;11.034;2024-03-02T07:07:57;27.05;;;9.45;;
75626;SDS011;67372;49.404;11.034;2024-03-02T07:10:24;25.65;;;10.07;;
75626;SDS011;67372;49.404;11.034;2024-03-02T07:12:50;24.40;;;10.52;;
75626;SDS011;67372;49.404;11.034;2024-03-02T07:15:17;30.20;;;11.18;;
75626;SDS011;67372;49.404;11.034;2024-03-02T07:17:43;21.70;;;9.57;;
75626;SDS011;67372;49.404;11.034;2024-03-02T07:20:10;22.50;;;10.43;;
75626;SDS011;67372;49.404;11.034;2024-03-02T07:22:37;25.35;;;10.13;;
75626;SDS011;67372;49.404;11.034;2024-03-02T07:25:05;23.73;;;9.82;;
75626;SDS011;67372;49.404;11.034;2024-03-02T07:27:32;21.13;;;9.48;;
75626;SDS011;67372;49.404;11.034;2024-03-02T07:29:58;19.92;;;9.13;;
75626;SDS011;67372;49.404;11.034;2024-03-02T07:32:25;19.92;;;8.43;;
75626;SDS011;67372;49.404;11.034;2024-03-02T07:34:51;18.50;;;8.32;;
75626;SDS011;67372;49.404;11.034;2024-03-02T07:37:18;19.23;;;8.88;;
75626;SDS011;67372;49.404;11.034;2024-03-02T07:39:44;24.40;;;10.40;;
75626;SDS011;67372;49.404;11.034;2024-03-02T07:42:11;22.95;;;9.40;;
75626;SDS011;67372;49.404;11.034;2024-03-02T07:44:37;20.30;;;8.93;;
75626;SDS011;67372;49.404;11.034;2024-03-02T07:47:07;22.35;;;9.70;;
75626;SDS011;67372;49.404;11.034;2024-03-02T07:49:33;20.35;;;9.70;;
75626;SDS011;67372;49.404;11.034;2024-03-02T07:52:00;20.20;;;9.48;;
75626;SDS011;67372;49.404;11.034;2024-03-02T07:54:26;21.60;;;9.45;;
75626;SDS011;67372;49.404;11.034;2024-03-02T07:56:52;20.02;;;8.57;;
75626;SDS011;67372;49.404;11.034;2024-03-02T07:59:19;20.17;;;9.05;;
75626;SDS011;67372;49.404;11.034;2024-03-02T08:01:45;24.08;;;10.15;;
75626;SDS011;67372;49.404;11.034;2024-03-02T08:04:12;19.42;;;9.30;;
75626;SDS011;67372;49.404;11.034;2024-03-02T08:06:39;18.60;;;8.55;;
75626;SDS011;67372;49.404;11.034;2024-03-02T08:09:05;20.38;;;9.32;;
75626;SDS011;67372;49.404;11.034;2024-03-02T08:11:31;18.65;;;7.90;;
75626;SDS011;67372;49.404;11.034;2024-03-02T08:13:58;23.02;;;9.52;;
75626;SDS011;67372;49.404;11.034;2024-03-02T08:16:24;20.65;;;8.95;;
75626;SDS011;67372;49.404;11.034;2024-03-02T08:18:51;19.83;;;8.70;;
75626;SDS011;67372;49.404;11.034;2024-03-02T08:21:18;21.05;;;8.75;;
75626;SDS011;67372;49.404;11.034;2024-03-02T08:23:45;24.63;;;10.07;;
75626;SDS011;67372;49.404;11.034;2024-03-02T08:26:11;21.13;;;9.63;;
75626;SDS011;67372;49.404;11.034;2024-03-02T08:28:38;19.85;;;8.82;;
75626;SDS011;67372;49.404;11.034;2024-03-02T08:31:05;18.58;;;8.65;;
75626;SDS011;67372;49.404;11.034;2024-03-02T08:33:32;18.33;;;8.05;;
75626;SDS011;67372;49.404;11.034;2024-03-02T08:36:01;18.17;;;8.32;;
75626;SDS011;67372;49.404;11.034;2024-03-02T08:38:27;20.10;;;8.27;;
75626;SDS011;67372;49.404;11.034;2024-03-02T08:40:54;17.27;;;7.70;;
75626;SDS011;67372;49.404;11.034;2024-03-02T08:43:20;20.00;;;8.48;;
75626;SDS011;67372;49.404;11.034;2024-03-02T08:45:47;19.58;;;8.40;;
75626;SDS011;67372;49.404;11.034;2024-03-02T08:48:14;16.80;;;7.90;;
75626;SDS011;67372;49.404;11.034;2024-03-02T08:50:41;18.25;;;8.00;;
75626;SDS011;67372;49.404;11.034;2024-03-02T08:53:07;19.08;;;7.13;;
75626;SDS011;67372;49.404;11.034;2024-03-02T08:55:33;19.02;;;7.88;;
75626;SDS011;67372;49.404;11.034;2024-03-02T08:58:00;16.83;;;7.50;;
75626;SDS011;67372;49.404;11.034;2024-03-02T09:00:26;15.73;;;7.25;;
75626;SDS011;67372;49.404;11.034;2024-03-02T09:02:53;14.95;;;7.00;;
75626;SDS011;67372;49.404;11.034;2024-03-02T09:05:19;14.85;;;7.32;;
75626;SDS011;67372;49.404;11.034;2024-03-02T09:07:46;17.15;;;7.75;;
75626;SDS011;67372;49.404;11.034;2024-03-02T09:10:12;15.32;;;7.30;;
75626;SDS011;67372;49.404;11.034;2024-03-02T09:12:38;14.95;;;7.35;;
75626;SDS011;67372;49.404;11.034;2024-03-02T09:15:05;13.30;;;7.07;;
75626;SDS011;67372;49.404;11.034;2024-03-02T09:17:32;14.98;;;7.07;;
75626;SDS011;67372;49.404;11.034;2024-03-02T09:19:59;14.90;;;7.00;;
75626;SDS011;67372;49.404;11.034;2024-03-02T09:22:25;13.57;;;6.40;;
75626;SDS011;67372;49.404;11.034;2024-03-02T09:24:52;14.63;;;6.32;;
75626;SDS011;67372;49.404;11.034;2024-03-02T09:27:18;13.27;;;6.28;;
75626;SDS011;67372;49.404;11.034;2024-03-02T09:29:45;14.35;;;6.80;;
75626;SDS011;67372;49.404;11.034;2024-03-02T09:32:14;13.05;;;6.60;;
75626;SDS011;67372;49.404;11.034;2024-03-02T09:34:41;14.02;;;6.40;;
75626;SDS011;67372;49.404;11.034;2024-03-02T09:37:07;12.95;;;6.20;;
75626;SDS011;67372;49.404;11.034;2024-03-02T09:39:34;11.23;;;6.28;;
75626;SDS011;67372;49.404;11.034;2024-03-02T09:42:00;12.23;;;6.18;;
75626;SDS011;67372;49.404;11.034;2024-03-02T09:44:27;13.57;;;6.43;;
75626;SDS011;67372;49.404;11.034;2024-03-02T09:46:53;14.25;;;6.30;;
75626;SDS011;67372;49.404;11.034;2024-03-02T09:49:20;11.02;;;5.95;;
75626;SDS011;67372;49.404;11.034;2024-03-02T09:51:47;11.75;;;5.82;;
75626;SDS011;67372;49.404;11.034;2024-03-02T09:54:17;14.18;;;6.75;;
75626;SDS011;67372;49.404;11.034;2024-03-02T09:56:48;11.32;;;6.15;;
75626;SDS011;67372;49.404;11.034;2024-03-02T09:59:15;11.75;;;5.97;;
75626;SDS011;67372;49.404;11.034;2024-03-02T10:01:55;11.93;;;6.32;;
75626;SDS011;67372;49.404;11.034;2024-03-02T10:04:25;11.27;;;5.47;;
75626;SDS011;67372;49.404;11.034;2024-03-02T10:07:12;11.30;;;6.10;;
75626;SDS011;67372;49.404;11.034;2024-03-02T10:09:38;11.20;;;5.82;;
75626;SDS011;67372;49.404;11.034;2024-03-02T10:12:07;9.73;;;5.50;;
75626;SDS011;67372;49.404;11.034;2024-03-02T10:14:34;11.88;;;6.15;;
75626;SDS011;67372;49.404;11.034;2024-03-02T10:17:02;8.93;;;5.28;;
75626;SDS011;67372;49.404;11.034;2024-03-02T10:19:33;10.20;;;5.20;;
75626;SDS011;67372;49.404;11.034;2024-03-02T10:22:00;9.63;;;5.53;;
75626;SDS011;67372;49.404;11.034;2024-03-02T10:24:42;10.30;;;5.38;;
75626;SDS011;67372;49.404;11.034;2024-03-02T10:27:10;10.73;;;5.65;;
75626;SDS011;67372;49.404;11.034;2024-03-02T10:29:41;9.75;;;5.43;;
75626;SDS011;67372;49.404;11.034;2024-03-02T10:32:08;12.32;;;5.57;;
75626;SDS011;67372;49.404;11.034;2024-03-02T10:34:36;9.65;;;5.45;;
75626;SDS011;67372;49.404;11.034;2024-03-02T10:37:03;10.15;;;5.43;;
75626;SDS011;67372;49.404;11.034;2024-03-02T10:39:31;9.57;;;5.20;;
75626;SDS011;67372;49.404;11.034;2024-03-02T10:41:58;10.48;;;6.53;;
75626;SDS011;67372;49.404;11.034;2024-03-02T10:44:25;9.45;;;5.60;;
75626;SDS011;67372;49.404;11.034;2024-03-02T10:46:52;11.45;;;6.00;;
75626;SDS011;67372;49.404;11.034;2024-03-02T10:49:21;10.50;;;5.60;;
75626;SDS011;67372;49.404;11.034;2024-03-02T10:51:49;9.75;;;5.57;;
75626;SDS011;67372;49.404;11.034;2024-03-02T10:54:16;10.45;;;5.15;;
75626;SDS011;67372;49.404;11.034;2024-03-02T10:56:43;9.73;;;5.55;;
75626;SDS011;67372;49.404;11.034;2024-03-02T10:59:24;11.50;;;5.60;;
75626;SDS011;67372;49.404;11.034;2024-03-02T11:01:53;26.92;;;13.10;;
75626;SDS011;67372;49.404;11.034;2024-03-02T11:04:25;10.60;;;5.93;;
75626;SDS011;67372;49.404;11.034;2024-03-02T11:06:54;10.13;;;6.50;;
75626;SDS011;67372;49.404;11.034;2024-03-02T11:09:26;13.40;;;7.45;;
75626;SDS011;67372;49.404;11.034;2024-03-02T11:11:56;14.43;;;8.63;;
75626;SDS011;67372;49.404;11.034;2024-03-02T11:14:26;16.35;;;8.10;;
75626;SDS011;67372;49.404;11.034;2024-03-02T11:16:52;14.80;;;8.88;;
75626;SDS011;67372;49.404;11.034;2024-03-02T11:19:19;14.73;;;9.02;;
75626;SDS011;67372;49.404;11.034;2024-03-02T11:21:46;13.45;;;7.85;;
75626;SDS011;67372;49.404;11.034;2024-03-02T11:26:49;15.63;;;8.70;;
75626;SDS011;67372;49.404;11.034;2024-03-02T11:29:59;14.70;;;8.38;;
75626;SDS011;67372;49.404;11.034;2024-03-02T11:32:06;14.60;;;8.25;;
75626;SDS011;67372;49.404;11.034;2024-03-02T11:34:44;14.35;;;8.07;;
75626;SDS011;67372;49.404;11.034;2024-03-02T11:37:13;14.98;;;8.30;;
75626;SDS011;67372;49.404;11.034;2024-03-02T11:39:39;16.42;;;8.55;;
75626;SDS011;67372;49.404;11.034;2024-03-02T11:42:06;14.77;;;8.73;;
75626;SDS011;67372;49.404;11.034;2024-03-02T11:44:33;14.57;;;7.78;;
75626;SDS011;67372;49.404;11.034;2024-03-02T11:47:06;14.30;;;7.25;;
75626;SDS011;67372;49.404;11.034;2024-03-02T11:49:49;13.50;;;7.25;;
75626;SDS011;67372;49.404;11.034;2024-03-02T11:52:17;13.05;;;7.63;;
75626;SDS011;67372;49.404;11.034;2024-03-02T11:54:44;16.08;;;8.27;;
75626;SDS011;67372;49.404;11.034;2024-03-02T11:57:15;14.30;;;8.15;;
75626;SDS011;67372;49.404;11.034;2024-03-02T11:59:43;15.98;;;7.90;;
75626;SDS011;67372;49.404;11.034;2024-03-02T12:02:17;17.05;;;8.75;;
75626;SDS011;67372;49.404;11.034;2024-03-02T12:04:44;19.88;;;10.02;;
75626;SDS011;67372;49.404;11.034;2024-03-02T12:07:12;18.35;;;9.77;;
75626;SDS011;67372;49.404;11.034;2024-03-02T12:09:44;18.70;;;9.82;;
75626;SDS011;67372;49.404;11.034;2024-03-02T12:12:10;21.08;;;10.13;;
75626;SDS011;67372;49.404;11.034;2024-03-02T12:14:37;22.23;;;10.60;;
75626;SDS011;67372;49.404;11.034;2024-03-02T12:17:05;22.88;;;11.00;;
75626;SDS011;67372;49.404;11.034;2024-03-02T12:21:59;17.98;;;10.02;;
75626;SDS011;67372;49.404;11.034;2024-03-02T12:24:26;18.77;;;9.55;;
75626;SDS011;67372;49.404;11.034;2024-03-02T12:26:54;21.13;;;10.77;;
75626;SDS011;67372;49.404;11.034;2024-03-02T12:29:21;21.33;;;10.80;;
75626;SDS011;67372;49.404;11.034;2024-03-02T12:31:48;22.00;;;11.20;;
75626;SDS011;67372;49.404;11.034;2024-03-02T12:34:15;22.30;;;10.73;;
75626;SDS011;67372;49.404;11.034;2024-03-02T12:36:43;23.23;;;11.57;;
75626;SDS011;67372;49.404;11.034;2024-03-02T12:39:10;21.65;;;10.40;;
75626;SDS011;67372;49.404;11.034;2024-03-02T12:41:37;22.65;;;10.90;;
75626;SDS011;67372;49.404;11.034;2024-03-02T12:44:03;22.55;;;10.65;;
75626;SDS011;67372;49.404;11.034;2024-03-02T12:49:05;19.85;;;9.70;;
75626;SDS011;67372;49.404;11.034;2024-03-02T12:51:34;21.48;;;9.93;;
75626;SDS011;67372;49.404;11.034;2024-03-02T12:54:01;22.55;;;11.18;;
75626;SDS011;67372;49.404;11.034;2024-03-02T12:56:28;20.60;;;9.77;;
75626;SDS011;67372;49.404;11.034;2024-03-02T12:58:55;19.55;;;10.27;;
75626;SDS011;67372;49.404;11.034;2024-03-02T13:01:22;20.60;;;11.40;;
75626;SDS011;67372;49.404;11.034;2024-03-02T13:03:49;21.80;;;10.95;;
75626;SDS011;67372;49.404;11.034;2024-03-02T13:06:16;19.20;;;10.98;;
75626;SDS011;67372;49.404;11.034;2024-03-02T13:08:44;21.48;;;10.95;;
75626;SDS011;67372;49.404;11.034;2024-03-02T13:11:11;19.00;;;10.55;;
75626;SDS011;67372;49.404;11.034;2024-03-02T13:13:38;20.77;;;11.43;;
75626;SDS011;67372;49.404;11.034;2024-03-02T13:16:12;20.40;;;10.23;;
75626;SDS011;67372;49.404;11.034;2024-03-02T13:18:39;17.35;;;9.35;;
75626;SDS011;67372;49.404;11.034;2024-03-02T13:21:06;18.65;;;10.50;;
75626;SDS011;67372;49.404;11.034;2024-03-02T13:23:34;18.10;;;9.32;;
75626;SDS011;67372;49.404;11.034;2024-03-02T13:26:00;18.70;;;9.68;;
75626;SDS011;67372;49.404;11.034;2024-03-02T13:28:27;20.63;;;10.60;;
75626;SDS011;67372;49.404;11.034;2024-03-02T13:30:53;20.23;;;12.07;;
75626;SDS011;67372;49.404;11.034;2024-03-02T13:33:20;24.08;;;13.15;;
75626;SDS011;67372;49.404;11.034;2024-03-02T13:35:46;20.15;;;11.07;;
75626;SDS011;67372;49.404;11.034;2024-03-02T13:38:13;23.77;;;12.05;;
75626;SDS011;67372;49.404;11.034;2024-03-02T13:40:39;29.30;;;15.05;;
75626;SDS011;67372;49.404;11.034;2024-03-02T13:43:06;20.45;;;10.35;;
75626;SDS011;67372;49.404;11.034;2024-03-02T13:45:32;25.38;;;13.32;;
75626;SDS011;67372;49.404;11.034;2024-03-02T13:48:00;31.73;;;15.63;;
75626;SDS011;67372;49.404;11.034;2024-03-02T13:52:52;25.30;;;12.68;;
75626;SDS011;67372;49.404;11.034;2024-03-02T13:55:19;21.08;;;10.52;;
75626;SDS011;67372;49.404;11.034;2024-03-02T13:57:46;29.38;;;13.82;;
75626;SDS011;67372;49.404;11.034;2024-03-02T14:00:12;17.35;;;9.23;;
75626;SDS011;67372;49.404;11.034;2024-03-02T14:02:39;21.90;;;8.98;;
75626;SDS011;67372;49.404;11.034;2024-03-02T14:05:06;23.60;;;10.98;;
75626;SDS011;67372;49.404;11.034;2024-03-02T14:07:32;22.00;;;10.43;;
75626;SDS011;67372;49.404;11.034;2024-03-02T14:09:59;18.77;;;8.98;;
75626;SDS011;67372;49.404;11.034;2024-03-02T14:12:25;16.85;;;8.15;;
75626;SDS011;67372;49.404;11.034;2024-03-02T14:14:52;14.32;;;7.60;;
75626;SDS011;67372;49.404;11.034;2024-03-02T14:17:18;17.80;;;8.25;;
75626;SDS011;67372;49.404;11.034;2024-03-02T14:19:45;15.40;;;7.95;;
75626;SDS011;67372;49.404;11.034;2024-03-02T14:22:11;20.92;;;7.90;;
75626;SDS011;67372;49.404;11.034;2024-03-02T14:24:37;12.60;;;7.35;;
75626;SDS011;67372;49.404;11.034;2024-03-02T14:27:04;14.68;;;8.10;;
75626;SDS011;67372;49.404;11.034;2024-03-02T14:29:50;17.27;;;8.55;;
75626;SDS011;67372;49.404;11.034;2024-03-02T14:32:16;16.55;;;7.78;;
75626;SDS011;67372;49.404;11.034;2024-03-02T14:34:42;16.38;;;7.90;;